sensor_id;sensor_type;location;lat;lon;timestamp;P1;durP1;ratioP1;P2;durP2;ratioP2
43327;SDS011;28923;45.412;10.852;2024-02-23T00:00:01;2.47;;;1.42;;
43327;SDS011;28923;45.412;10.852;2024-02-23T00:02:30;1.70;;;1.60;;
43327;SDS011;28923;45.412;10.852;2024-02-23T00:04:56;1.92;;;1.50;;
43327;SDS011;28923;45.412;10.852;2024-02-23T00:07:21;2.42;;;1.83;;
43327;SDS011;28923;45.412;10.852;2024-02-23T00:09:46;1.52;;;1.38;;
43327;SDS011;28923;45.412;10.852;2024-02-23T00:12:12;1.98;;;1.58;;
43327;SDS011;28923;45.412;10.852;2024-02-23T00:14:39;2.22;;;1.50;;
43327;SDS011;28923;45.412;10.852;2024-02-23T00:17:04;1.70;;;1.60;;
43327;SDS011;28923;45.412;10.852;2024-02-23T00:19:30;1.70;;;1.60;;
43327;SDS011;28923;45.412;10.852;2024-02-23T00:21:56;1.90;;;1.38;;
43327;SDS011;28923;45.412;10.852;2024-02-23T00:24:22;1.73;;;1.50;;
43327;SDS011;28923;45.412;10.852;2024-02-23T00:26:48;1.55;;;1.40;;
43327;SDS011;28923;45.412;10.852;2024-02-23T00:29:13;1.60;;;1.50;;
43327;SDS011;28923;45.412;10.852;2024-02-23T00:31:39;1.50;;;1.40;;
43327;SDS011;28923;45.412;10.852;2024-02-23T00:34:08;1.55;;;1.35;;
43327;SDS011;28923;45.412;10.852;2024-02-23T00:36:38;1.52;;;1.42;;
43327;SDS011;28923;45.412;10.852;2024-02-23T00:39:04;1.50;;;1.40;;
43327;SDS011;28923;45.412;10.852;2024-02-23T00:41:29;2.03;;;1.42;;
43327;SDS011;28923;45.412;10.852;2024-02-23T00:43:55;1.52;;;1.42;;
43327;SDS011;28923;45.412;10.852;2024-02-23T00:46:20;1.63;;;1.52;;
43327;SDS011;28923;45.412;10.852;2024-02-23T00:48:46;1.70;;;1.48;;
43327;SDS011;28923;45.412;10.852;2024-02-23T00:51:13;1.63;;;1.52;;
43327;SDS011;28923;45.412;10.852;2024-02-23T00:53:38;1.73;;;1.60;;
43327;SDS011;28923;45.412;10.852;2024-02-23T00:56:04;2.88;;;1.48;;
43327;SDS011;28923;45.412;10.852;2024-02-23T00:58:29;2.08;;;1.45;;
43327;SDS011;28923;45.412;10.852;2024-02-23T01:00:55;1.30;;;1.20;;
43327;SDS011;28923;45.412;10.852;2024-02-23T01:03:20;1.63;;;1.38;;
43327;SDS011;28923;45.412;10.852;2024-02-23T01:05:46;1.45;;;1.35;;
43327;SDS011;28923;45.412;10.852;2024-02-23T01:08:11;1.10;;;1.00;;
43327;SDS011;28923;45.412;10.852;2024-02-23T01:10:37;1.98;;;1.40;;
43327;SDS011;28923;45.412;10.852;2024-02-23T01:13:02;1.77;;;1.40;;
43327;SDS011;28923;45.412;10.852;2024-02-23T01:15:27;1.40;;;1.30;;
43327;SDS011;28923;45.412;10.852;2024-02-23T01:17:53;1.88;;;1.45;;
43327;SDS011;28923;45.412;10.852;2024-02-23T01:20:18;3.05;;;1.50;;
43327;SDS011;28923;45.412;10.852;2024-02-23T01:22:43;1.20;;;1.10;;
43327;SDS011;28923;45.412;10.852;2024-02-23T01:25:09;1.60;;;1.50;;
43327;SDS011;28923;45.412;10.852;2024-02-23T01:27:34;1.40;;;1.30;;
43327;SDS011;28923;45.412;10.852;2024-02-23T01:29:59;1.20;;;1.10;;
43327;SDS011;28923;45.412;10.852;2024-02-23T01:32:25;1.30;;;1.20;;
43327;SDS011;28923;45.412;10.852;2024-02-23T01:34:50;2.08;;;1.25;;
43327;SDS011;28923;45.412;10.852;2024-02-23T01:37:16;1.20;;;1.10;;
43327;SDS011;28923;45.412;10.852;2024-02-23T01:39:42;1.20;;;1.10;;
43327;SDS011;28923;45.412;10.852;2024-02-23T01:42:08;1.50;;;1.25;;
43327;SDS011;28923;45.412;10.852;2024-02-23T01:44:33;1.42;;;1.15;;
43327;SDS011;28923;45.412;10.852;2024-02-23T01:46:58;1.25;;;1.15;;
43327;SDS011;28923;45.412;10.852;2024-02-23T01:49:24;1.85;;;1.20;;
43327;SDS011;28923;45.412;10.852;2024-02-23T01:51:55;1.55;;;1.25;;
43327;SDS011;28923;45.412;10.852;2024-02-23T01:54:22;1.30;;;1.20;;
43327;SDS011;28923;45.412;10.852;2024-02-23T01:56:47;1.17;;;1.08;;
43327;SDS011;28923;45.412;10.852;2024-02-23T01:59:13;1.25;;;1.15;;
43327;SDS011;28923;45.412;10.852;2024-02-23T02:01:38;1.60;;;1.40;;
43327;SDS011;28923;45.412;10.852;2024-02-23T02:04:04;1.30;;;1.20;;
43327;SDS011;28923;45.412;10.852;2024-02-23T02:06:29;1.38;;;1.23;;
43327;SDS011;28923;45.412;10.852;2024-02-23T02:08:55;1.30;;;1.20;;
43327;SDS011;28923;45.412;10.852;2024-02-23T02:11:20;1.58;;;1.05;;
43327;SDS011;28923;45.412;10.852;2024-02-23T02:13:46;1.30;;;1.20;;
43327;SDS011;28923;45.412;10.852;2024-02-23T02:16:11;1.10;;;1.00;;
43327;SDS011;28923;45.412;10.852;2024-02-23T02:18:37;1.20;;;1.10;;
43327;SDS011;28923;45.412;10.852;2024-02-23T02:21:02;1.35;;;1.23;;
43327;SDS011;28923;45.412;10.852;2024-02-23T02:23:27;1.10;;;1.00;;
43327;SDS011;28923;45.412;10.852;2024-02-23T02:25:53;1.23;;;1.13;;
43327;SDS011;28923;45.412;10.852;2024-02-23T02:28:19;1.10;;;1.00;;
43327;SDS011;28923;45.412;10.852;2024-02-23T02:30:44;1.20;;;1.10;;
43327;SDS011;28923;45.412;10.852;2024-02-23T02:33:10;1.63;;;1.30;;
43327;SDS011;28923;45.412;10.852;2024-02-23T02:35:35;1.20;;;1.10;;
43327;SDS011;28923;45.412;10.852;2024-02-23T02:38:00;1.33;;;1.00;;
43327;SDS011;28923;45.412;10.852;2024-02-23T02:40:26;1.52;;;1.02;;
43327;SDS011;28923;45.412;10.852;2024-02-23T02:42:51;0.93;;;0.93;;
43327;SDS011;28923;45.412;10.852;2024-02-23T02:45:16;1.35;;;1.02;;
43327;SDS011;28923;45.412;10.852;2024-02-23T02:47:42;1.00;;;0.90;;
43327;SDS011;28923;45.412;10.852;2024-02-23T02:50:08;1.10;;;1.00;;
43327;SDS011;28923;45.412;10.852;2024-02-23T02:52:34;0.93;;;0.93;;
43327;SDS011;28923;45.412;10.852;2024-02-23T02:54:59;1.10;;;0.95;;
43327;SDS011;28923;45.412;10.852;2024-02-23T02:57:25;0.95;;;0.90;;
43327;SDS011;28923;45.412;10.852;2024-02-23T02:59:50;1.25;;;1.08;;
43327;SDS011;28923;45.412;10.852;2024-02-23T03:02:15;0.90;;;0.85;;
43327;SDS011;28923;45.412;10.852;2024-02-23T03:04:50;1.00;;;0.90;;
43327;SDS011;28923;45.412;10.852;2024-02-23T03:07:16;1.05;;;0.95;;
43327;SDS011;28923;45.412;10.852;2024-02-23T03:09:41;0.80;;;0.80;;
43327;SDS011;28923;45.412;10.852;2024-02-23T03:12:07;0.85;;;0.85;;
43327;SDS011;28923;45.412;10.852;2024-02-23T03:14:32;1.02;;;0.95;;
43327;SDS011;28923;45.412;10.852;2024-02-23T03:16:59;1.25;;;0.90;;
43327;SDS011;28923;45.412;10.852;2024-02-23T03:19:24;0.88;;;0.80;;
43327;SDS011;28923;45.412;10.852;2024-02-23T03:21:50;1.15;;;1.00;;
43327;SDS011;28923;45.412;10.852;2024-02-23T03:24:16;0.90;;;0.90;;
43327;SDS011;28923;45.412;10.852;2024-02-23T03:26:41;0.88;;;0.88;;
43327;SDS011;28923;45.412;10.852;2024-02-23T03:29:07;1.48;;;1.02;;
43327;SDS011;28923;45.412;10.852;2024-02-23T03:31:32;1.15;;;1.00;;
43327;SDS011;28923;45.412;10.852;2024-02-23T03:33:57;0.90;;;0.90;;
43327;SDS011;28923;45.412;10.852;2024-02-23T03:36:23;1.13;;;1.02;;
43327;SDS011;28923;45.412;10.852;2024-02-23T03:38:48;1.17;;;0.70;;
43327;SDS011;28923;45.412;10.852;2024-02-23T03:41:14;1.02;;;0.88;;
43327;SDS011;28923;45.412;10.852;2024-02-23T03:43:39;2.50;;;0.80;;
43327;SDS011;28923;45.412;10.852;2024-02-23T03:46:05;1.00;;;0.88;;
43327;SDS011;28923;45.412;10.852;2024-02-23T03:48:31;0.93;;;0.85;;
43327;SDS011;28923;45.412;10.852;2024-02-23T03:50:57;1.42;;;0.90;;
43327;SDS011;28923;45.412;10.852;2024-02-23T03:53:22;1.15;;;0.80;;
43327;SDS011;28923;45.412;10.852;2024-02-23T03:55:48;0.70;;;0.70;;
43327;SDS011;28923;45.412;10.852;2024-02-23T03:58:13;0.70;;;0.70;;
43327;SDS011;28923;45.412;10.852;2024-02-23T04:00:39;0.98;;;0.88;;
43327;SDS011;28923;45.412;10.852;2024-02-23T04:03:04;0.88;;;0.85;;
43327;SDS011;28923;45.412;10.852;2024-02-23T04:05:30;1.15;;;1.05;;
43327;SDS011;28923;45.412;10.852;2024-02-23T04:07:55;1.45;;;0.88;;
43327;SDS011;28923;45.412;10.852;2024-02-23T04:10:20;1.10;;;0.95;;
43327;SDS011;28923;45.412;10.852;2024-02-23T04:12:46;1.17;;;0.88;;
43327;SDS011;28923;45.412;10.852;2024-02-23T04:15:12;1.25;;;1.05;;
43327;SDS011;28923;45.412;10.852;2024-02-23T04:17:37;1.08;;;1.00;;
43327;SDS011;28923;45.412;10.852;2024-02-23T04:20:05;0.90;;;0.90;;
43327;SDS011;28923;45.412;10.852;2024-02-23T04:22:30;0.95;;;0.80;;
43327;SDS011;28923;45.412;10.852;2024-02-23T04:24:56;1.02;;;0.90;;
43327;SDS011;28923;45.412;10.852;2024-02-23T04:27:21;1.48;;;1.10;;
43327;SDS011;28923;45.412;10.852;2024-02-23T04:29:47;1.15;;;0.90;;
43327;SDS011;28923;45.412;10.852;2024-02-23T04:32:12;0.70;;;0.68;;
43327;SDS011;28923;45.412;10.852;2024-02-23T04:34:38;0.85;;;0.85;;
43327;SDS011;28923;45.412;10.852;2024-02-23T04:37:04;1.20;;;0.95;;
43327;SDS011;28923;45.412;10.852;2024-02-23T04:39:30;0.95;;;0.90;;
43327;SDS011;28923;45.412;10.852;2024-02-23T04:41:55;0.80;;;0.80;;
43327;SDS011;28923;45.412;10.852;2024-02-23T04:44:20;0.80;;;0.63;;
43327;SDS011;28923;45.412;10.852;2024-02-23T04:46:46;1.35;;;1.00;;
43327;SDS011;28923;45.412;10.852;2024-02-23T04:49:11;0.80;;;0.80;;
43327;SDS011;28923;45.412;10.852;2024-02-23T04:51:37;0.80;;;0.80;;
43327;SDS011;28923;45.412;10.852;2024-02-23T04:54:02;1.00;;;0.90;;
43327;SDS011;28923;45.412;10.852;2024-02-23T04:56:28;0.93;;;0.90;;
43327;SDS011;28923;45.412;10.852;2024-02-23T04:58:53;0.90;;;0.90;;
43327;SDS011;28923;45.412;10.852;2024-02-23T05:01:19;0.98;;;0.70;;
43327;SDS011;28923;45.412;10.852;2024-02-23T05:03:44;2.00;;;0.90;;
43327;SDS011;28923;45.412;10.852;2024-02-23T05:06:10;0.63;;;0.60;;
43327;SDS011;28923;45.412;10.852;2024-02-23T05:08:35;1.63;;;0.80;;
43327;SDS011;28923;45.412;10.852;2024-02-23T05:11:01;0.85;;;0.80;;
43327;SDS011;28923;45.412;10.852;2024-02-23T05:13:27;0.98;;;0.70;;
43327;SDS011;28923;45.412;10.852;2024-02-23T05:15:54;0.93;;;0.82;;
43327;SDS011;28923;45.412;10.852;2024-02-23T05:18:20;1.42;;;1.00;;
43327;SDS011;28923;45.412;10.852;2024-02-23T05:20:45;1.27;;;0.93;;
43327;SDS011;28923;45.412;10.852;2024-02-23T05:23:11;0.85;;;0.85;;
43327;SDS011;28923;45.412;10.852;2024-02-23T05:25:36;0.70;;;0.70;;
43327;SDS011;28923;45.412;10.852;2024-02-23T05:28:02;0.88;;;0.70;;
43327;SDS011;28923;45.412;10.852;2024-02-23T05:30:27;1.10;;;1.00;;
43327;SDS011;28923;45.412;10.852;2024-02-23T05:32:56;0.70;;;0.70;;
43327;SDS011;28923;45.412;10.852;2024-02-23T05:35:22;1.35;;;0.80;;
43327;SDS011;28923;45.412;10.852;2024-02-23T05:37:47;1.10;;;0.77;;
43327;SDS011;28923;45.412;10.852;2024-02-23T05:40:15;0.80;;;0.80;;
43327;SDS011;28923;45.412;10.852;2024-02-23T05:42:40;1.13;;;0.90;;
43327;SDS011;28923;45.412;10.852;2024-02-23T05:45:09;0.93;;;0.80;;
43327;SDS011;28923;45.412;10.852;2024-02-23T05:47:38;0.80;;;0.80;;
43327;SDS011;28923;45.412;10.852;2024-02-23T05:50:04;0.88;;;0.75;;
43327;SDS011;28923;45.412;10.852;2024-02-23T05:52:32;1.05;;;0.88;;
43327;SDS011;28923;45.412;10.852;2024-02-23T05:54:58;0.70;;;0.70;;
43327;SDS011;28923;45.412;10.852;2024-02-23T05:57:25;1.83;;;1.40;;
43327;SDS011;28923;45.412;10.852;2024-02-23T05:59:51;2.30;;;1.25;;
43327;SDS011;28923;45.412;10.852;2024-02-23T06:02:16;3.92;;;1.00;;
43327;SDS011;28923;45.412;10.852;2024-02-23T06:04:41;2.33;;;1.27;;
43327;SDS011;28923;45.412;10.852;2024-02-23T06:07:07;3.03;;;1.30;;
43327;SDS011;28923;45.412;10.852;2024-02-23T06:09:32;5.68;;;1.50;;
43327;SDS011;28923;45.412;10.852;2024-02-23T06:11:58;4.20;;;1.10;;
43327;SDS011;28923;45.412;10.852;2024-02-23T06:14:23;3.35;;;1.30;;
43327;SDS011;28923;45.412;10.852;2024-02-23T06:16:49;3.72;;;1.15;;
43327;SDS011;28923;45.412;10.852;2024-02-23T06:19:14;3.33;;;1.13;;
43327;SDS011;28923;45.412;10.852;2024-02-23T06:21:40;5.05;;;1.20;;
43327;SDS011;28923;45.412;10.852;2024-02-23T06:24:06;2.30;;;1.00;;
43327;SDS011;28923;45.412;10.852;2024-02-23T06:26:33;1.95;;;1.20;;
43327;SDS011;28923;45.412;10.852;2024-02-23T06:28:59;4.55;;;1.05;;
43327;SDS011;28923;45.412;10.852;2024-02-23T06:31:24;6.40;;;1.20;;
43327;SDS011;28923;45.412;10.852;2024-02-23T06:33:50;2.90;;;1.08;;
43327;SDS011;28923;45.412;10.852;2024-02-23T06:36:17;5.65;;;1.10;;
43327;SDS011;28923;45.412;10.852;2024-02-23T06:38:42;3.42;;;1.10;;
43327;SDS011;28923;45.412;10.852;2024-02-23T06:41:08;5.68;;;1.00;;
43327;SDS011;28923;45.412;10.852;2024-02-23T06:43:36;5.68;;;1.50;;
43327;SDS011;28923;45.412;10.852;2024-02-23T06:46:06;2.03;;;1.00;;
43327;SDS011;28923;45.412;10.852;2024-02-23T06:48:32;4.88;;;1.25;;
43327;SDS011;28923;45.412;10.852;2024-02-23T06:50:57;2.85;;;1.33;;
43327;SDS011;28923;45.412;10.852;2024-02-23T06:53:23;3.05;;;1.45;;
43327;SDS011;28923;45.412;10.852;2024-02-23T06:55:48;4.95;;;1.30;;
43327;SDS011;28923;45.412;10.852;2024-02-23T06:58:14;1.83;;;1.05;;
43327;SDS011;28923;45.412;10.852;2024-02-23T07:00:41;2.97;;;0.95;;
43327;SDS011;28923;45.412;10.852;2024-02-23T07:03:07;3.67;;;0.95;;
43327;SDS011;28923;45.412;10.852;2024-02-23T07:05:32;3.17;;;0.85;;
43327;SDS011;28923;45.412;10.852;2024-02-23T07:07:58;2.90;;;1.08;;
43327;SDS011;28923;45.412;10.852;2024-02-23T07:10:23;1.30;;;1.00;;
43327;SDS011;28923;45.412;10.852;2024-02-23T07:12:50;1.40;;;1.10;;
43327;SDS011;28923;45.412;10.852;2024-02-23T07:15:19;3.45;;;1.17;;
43327;SDS011;28923;45.412;10.852;2024-02-23T07:17:44;4.22;;;1.00;;
43327;SDS011;28923;45.412;10.852;2024-02-23T07:20:10;4.63;;;1.23;;
43327;SDS011;28923;45.412;10.852;2024-02-23T07:22:35;5.38;;;1.10;;
43327;SDS011;28923;45.412;10.852;2024-02-23T07:25:01;3.17;;;1.08;;
43327;SDS011;28923;45.412;10.852;2024-02-23T07:27:29;5.82;;;1.15;;
43327;SDS011;28923;45.412;10.852;2024-02-23T07:29:55;2.45;;;1.00;;
43327;SDS011;28923;45.412;10.852;2024-02-23T07:32:20;2.47;;;0.80;;
43327;SDS011;28923;45.412;10.852;2024-02-23T07:34:45;2.15;;;1.13;;
43327;SDS011;28923;45.412;10.852;2024-02-23T07:37:11;1.50;;;0.85;;
43327;SDS011;28923;45.412;10.852;2024-02-23T07:39:36;2.50;;;1.00;;
43327;SDS011;28923;45.412;10.852;2024-02-23T07:42:02;1.13;;;0.93;;
43327;SDS011;28923;45.412;10.852;2024-02-23T07:44:28;1.02;;;1.00;;
43327;SDS011;28923;45.412;10.852;2024-02-23T07:46:53;2.13;;;1.10;;
43327;SDS011;28923;45.412;10.852;2024-02-23T07:49:20;1.15;;;1.02;;
43327;SDS011;28923;45.412;10.852;2024-02-23T07:51:47;2.38;;;0.93;;
43327;SDS011;28923;45.412;10.852;2024-02-23T07:54:12;2.70;;;1.13;;
43327;SDS011;28923;45.412;10.852;2024-02-23T07:56:38;1.75;;;1.00;;
43327;SDS011;28923;45.412;10.852;2024-02-23T07:59:03;1.30;;;1.00;;
43327;SDS011;28923;45.412;10.852;2024-02-23T08:01:29;1.70;;;1.17;;
43327;SDS011;28923;45.412;10.852;2024-02-23T08:03:54;1.73;;;1.10;;
43327;SDS011;28923;45.412;10.852;2024-02-23T08:06:19;1.70;;;1.17;;
43327;SDS011;28923;45.412;10.852;2024-02-23T08:08:45;1.17;;;0.90;;
43327;SDS011;28923;45.412;10.852;2024-02-23T08:11:12;1.45;;;1.00;;
43327;SDS011;28923;45.412;10.852;2024-02-23T08:13:39;1.17;;;1.02;;
43327;SDS011;28923;45.412;10.852;2024-02-23T08:16:04;1.42;;;1.00;;
43327;SDS011;28923;45.412;10.852;2024-02-23T08:18:31;2.47;;;0.90;;
43327;SDS011;28923;45.412;10.852;2024-02-23T08:20:56;1.17;;;1.08;;
43327;SDS011;28923;45.412;10.852;2024-02-23T08:23:22;2.17;;;0.90;;
43327;SDS011;28923;45.412;10.852;2024-02-23T08:25:48;1.13;;;1.02;;
43327;SDS011;28923;45.412;10.852;2024-02-23T08:28:13;3.22;;;1.08;;
43327;SDS011;28923;45.412;10.852;2024-02-23T08:30:39;8.18;;;1.35;;
43327;SDS011;28923;45.412;10.852;2024-02-23T08:33:04;1.80;;;1.60;;
43327;SDS011;28923;45.412;10.852;2024-02-23T08:35:30;2.47;;;1.73;;
43327;SDS011;28923;45.412;10.852;2024-02-23T08:37:56;3.30;;;2.70;;
43327;SDS011;28923;45.412;10.852;2024-02-23T08:40:21;4.55;;;2.25;;
43327;SDS011;28923;45.412;10.852;2024-02-23T08:42:47;3.05;;;2.47;;
43327;SDS011;28923;45.412;10.852;2024-02-23T08:45:12;2.47;;;2.15;;
43327;SDS011;28923;45.412;10.852;2024-02-23T08:47:38;2.78;;;2.15;;
43327;SDS011;28923;45.412;10.852;2024-02-23T08:50:04;3.35;;;2.45;;
43327;SDS011;28923;45.412;10.852;2024-02-23T08:52:29;2.55;;;1.90;;
43327;SDS011;28923;45.412;10.852;2024-02-23T08:54:55;5.03;;;2.03;;
43327;SDS011;28923;45.412;10.852;2024-02-23T08:57:20;2.10;;;1.80;;
43327;SDS011;28923;45.412;10.852;2024-02-23T08:59:48;1.70;;;1.60;;
43327;SDS011;28923;45.412;10.852;2024-02-23T09:02:13;3.30;;;1.90;;
43327;SDS011;28923;45.412;10.852;2024-02-23T09:04:39;3.10;;;1.80;;
43327;SDS011;28923;45.412;10.852;2024-02-23T09:07:04;2.75;;;1.60;;
43327;SDS011;28923;45.412;10.852;2024-02-23T09:09:30;2.90;;;1.88;;
43327;SDS011;28923;45.412;10.852;2024-02-23T09:11:55;2.53;;;1.70;;
43327;SDS011;28923;45.412;10.852;2024-02-23T09:14:21;1.55;;;1.40;;
43327;SDS011;28923;45.412;10.852;2024-02-23T09:16:46;2.30;;;1.70;;
43327;SDS011;28923;45.412;10.852;2024-02-23T09:19:12;2.85;;;1.75;;
43327;SDS011;28923;45.412;10.852;2024-02-23T09:21:38;1.75;;;1.55;;
43327;SDS011;28923;45.412;10.852;2024-02-23T09:24:03;2.22;;;1.70;;
43327;SDS011;28923;45.412;10.852;2024-02-23T09:26:29;2.85;;;1.73;;
43327;SDS011;28923;45.412;10.852;2024-02-23T09:28:54;2.13;;;1.60;;
43327;SDS011;28923;45.412;10.852;2024-02-23T09:31:20;4.00;;;1.60;;
43327;SDS011;28923;45.412;10.852;2024-02-23T09:33:45;2.80;;;1.40;;
43327;SDS011;28923;45.412;10.852;2024-02-23T09:36:12;1.90;;;1.20;;
43327;SDS011;28923;45.412;10.852;2024-02-23T09:38:37;3.60;;;1.50;;
43327;SDS011;28923;45.412;10.852;2024-02-23T09:41:03;1.77;;;1.33;;
43327;SDS011;28923;45.412;10.852;2024-02-23T09:43:29;1.50;;;1.15;;
43327;SDS011;28923;45.412;10.852;2024-02-23T09:45:54;2.85;;;1.27;;
43327;SDS011;28923;45.412;10.852;2024-02-23T09:48:21;2.25;;;1.80;;
43327;SDS011;28923;45.412;10.852;2024-02-23T09:50:47;1.58;;;1.20;;
43327;SDS011;28923;45.412;10.852;2024-02-23T09:53:13;1.67;;;1.35;;
43327;SDS011;28923;45.412;10.852;2024-02-23T09:55:39;1.92;;;1.25;;
43327;SDS011;28923;45.412;10.852;2024-02-23T09:58:04;2.42;;;1.30;;
43327;SDS011;28923;45.412;10.852;2024-02-23T10:00:31;1.60;;;1.45;;
43327;SDS011;28923;45.412;10.852;2024-02-23T10:02:58;1.73;;;1.30;;
43327;SDS011;28923;45.412;10.852;2024-02-23T10:05:26;2.65;;;1.25;;
43327;SDS011;28923;45.412;10.852;2024-02-23T10:07:54;3.38;;;1.48;;
43327;SDS011;28923;45.412;10.852;2024-02-23T10:10:29;2.33;;;1.30;;
43327;SDS011;28923;45.412;10.852;2024-02-23T10:12:55;1.90;;;1.15;;
43327;SDS011;28923;45.412;10.852;2024-02-23T10:15:20;1.95;;;1.50;;
43327;SDS011;28923;45.412;10.852;2024-02-23T10:17:45;2.13;;;1.60;;
43327;SDS011;28923;45.412;10.852;2024-02-23T10:20:11;2.13;;;1.60;;
43327;SDS011;28923;45.412;10.852;2024-02-23T10:22:36;1.52;;;1.30;;
43327;SDS011;28923;45.412;10.852;2024-02-23T10:25:01;1.20;;;1.10;;
43327;SDS011;28923;45.412;10.852;2024-02-23T10:27:27;2.75;;;1.30;;
43327;SDS011;28923;45.412;10.852;2024-02-23T10:29:53;1.42;;;1.33;;
43327;SDS011;28923;45.412;10.852;2024-02-23T10:32:19;1.30;;;1.20;;
43327;SDS011;28923;45.412;10.852;2024-02-23T10:34:47;1.45;;;1.15;;
43327;SDS011;28923;45.412;10.852;2024-02-23T10:37:13;2.03;;;1.20;;
43327;SDS011;28923;45.412;10.852;2024-02-23T10:39:38;0.90;;;0.90;;
43327;SDS011;28923;45.412;10.852;2024-02-23T10:42:04;1.42;;;1.15;;
43327;SDS011;28923;45.412;10.852;2024-02-23T10:44:33;1.30;;;1.10;;
43327;SDS011;28923;45.412;10.852;2024-02-23T10:46:59;1.55;;;1.13;;
43327;SDS011;28923;45.412;10.852;2024-02-23T10:49:25;1.20;;;1.10;;
43327;SDS011;28923;45.412;10.852;2024-02-23T10:51:54;1.40;;;1.20;;
43327;SDS011;28923;45.412;10.852;2024-02-23T10:54:19;2.90;;;1.05;;
43327;SDS011;28923;45.412;10.852;2024-02-23T10:56:46;1.20;;;1.10;;
43327;SDS011;28923;45.412;10.852;2024-02-23T10:59:12;1.40;;;1.23;;
43327;SDS011;28923;45.412;10.852;2024-02-23T11:01:37;1.40;;;1.10;;
43327;SDS011;28923;45.412;10.852;2024-02-23T11:04:04;1.63;;;1.05;;
43327;SDS011;28923;45.412;10.852;2024-02-23T11:06:32;2.22;;;1.13;;
43327;SDS011;28923;45.412;10.852;2024-02-23T11:09:04;1.25;;;0.95;;
43327;SDS011;28923;45.412;10.852;2024-02-23T11:11:31;3.47;;;1.02;;
43327;SDS011;28923;45.412;10.852;2024-02-23T11:13:57;1.10;;;0.98;;
43327;SDS011;28923;45.412;10.852;2024-02-23T11:16:22;2.13;;;1.27;;
43327;SDS011;28923;45.412;10.852;2024-02-23T11:19:04;1.40;;;0.95;;
43327;SDS011;28923;45.412;10.852;2024-02-23T11:21:37;3.75;;;1.30;;
43327;SDS011;28923;45.412;10.852;2024-02-23T11:24:03;2.25;;;1.17;;
43327;SDS011;28923;45.412;10.852;2024-02-23T11:26:28;1.63;;;1.17;;
43327;SDS011;28923;45.412;10.852;2024-02-23T11:28:54;1.00;;;0.90;;
43327;SDS011;28923;45.412;10.852;2024-02-23T11:31:23;2.92;;;1.20;;
43327;SDS011;28923;45.412;10.852;2024-02-23T11:33:49;1.92;;;1.13;;
43327;SDS011;28923;45.412;10.852;2024-02-23T11:36:50;1.60;;;1.20;;
43327;SDS011;28923;45.412;10.852;2024-02-23T11:39:07;1.20;;;1.02;;
43327;SDS011;28923;45.412;10.852;2024-02-23T11:41:36;1.23;;;1.02;;
43327;SDS011;28923;45.412;10.852;2024-02-23T11:44:02;1.77;;;1.10;;
43327;SDS011;28923;45.412;10.852;2024-02-23T11:46:28;1.20;;;1.10;;
43327;SDS011;28923;45.412;10.852;2024-02-23T11:48:54;1.20;;;0.93;;
43327;SDS011;28923;45.412;10.852;2024-02-23T11:51:20;1.27;;;1.05;;
43327;SDS011;28923;45.412;10.852;2024-02-23T11:53:48;1.33;;;1.08;;
43327;SDS011;28923;45.412;10.852;2024-02-23T11:56:14;5.63;;;1.10;;
43327;SDS011;28923;45.412;10.852;2024-02-23T11:58:40;1.63;;;0.90;;
43327;SDS011;28923;45.412;10.852;2024-02-23T12:01:05;1.75;;;1.20;;
43327;SDS011;28923;45.412;10.852;2024-02-23T12:03:32;3.22;;;1.40;;
43327;SDS011;28923;45.412;10.852;2024-02-23T12:05:58;1.55;;;1.20;;
43327;SDS011;28923;45.412;10.852;2024-02-23T12:08:25;2.45;;;1.20;;
43327;SDS011;28923;45.412;10.852;2024-02-23T12:10:51;1.20;;;1.10;;
43327;SDS011;28923;45.412;10.852;2024-02-23T12:13:17;1.10;;;0.98;;
43327;SDS011;28923;45.412;10.852;2024-02-23T12:15:42;1.52;;;0.90;;
43327;SDS011;28923;45.412;10.852;2024-02-23T12:18:10;1.30;;;1.20;;
43327;SDS011;28923;45.412;10.852;2024-02-23T12:20:35;1.95;;;1.10;;
43327;SDS011;28923;45.412;10.852;2024-02-23T12:23:01;1.25;;;0.90;;
43327;SDS011;28923;45.412;10.852;2024-02-23T12:25:26;2.25;;;0.90;;
43327;SDS011;28923;45.412;10.852;2024-02-23T12:27:55;1.63;;;1.00;;
43327;SDS011;28923;45.412;10.852;2024-02-23T12:30:21;2.85;;;0.90;;
43327;SDS011;28923;45.412;10.852;2024-02-23T12:32:46;0.88;;;0.80;;
43327;SDS011;28923;45.412;10.852;2024-02-23T12:35:12;1.33;;;1.02;;
43327;SDS011;28923;45.412;10.852;2024-02-23T12:37:37;1.73;;;0.93;;
43327;SDS011;28923;45.412;10.852;2024-02-23T12:40:03;0.93;;;0.85;;
43327;SDS011;28923;45.412;10.852;2024-02-23T12:42:28;2.53;;;0.90;;
43327;SDS011;28923;45.412;10.852;2024-02-23T12:44:54;4.35;;;1.45;;
43327;SDS011;28923;45.412;10.852;2024-02-23T12:47:19;3.03;;;1.45;;
43327;SDS011;28923;45.412;10.852;2024-02-23T12:49:45;1.20;;;1.10;;
43327;SDS011;28923;45.412;10.852;2024-02-23T12:52:10;2.38;;;1.33;;
43327;SDS011;28923;45.412;10.852;2024-02-23T12:54:36;1.80;;;1.10;;
43327;SDS011;28923;45.412;10.852;2024-02-23T12:57:01;3.90;;;1.48;;
43327;SDS011;28923;45.412;10.852;2024-02-23T12:59:26;4.60;;;0.95;;
43327;SDS011;28923;45.412;10.852;2024-02-23T13:01:52;2.15;;;0.82;;
43327;SDS011;28923;45.412;10.852;2024-02-23T13:04:17;1.98;;;0.85;;
43327;SDS011;28923;45.412;10.852;2024-02-23T13:06:43;4.82;;;1.00;;
43327;SDS011;28923;45.412;10.852;2024-02-23T13:09:08;3.58;;;1.20;;
43327;SDS011;28923;45.412;10.852;2024-02-23T13:11:34;3.55;;;1.10;;
43327;SDS011;28923;45.412;10.852;2024-02-23T13:14:00;1.13;;;1.02;;
43327;SDS011;28923;45.412;10.852;2024-02-23T13:16:25;1.65;;;1.00;;
43327;SDS011;28923;45.412;10.852;2024-02-23T13:18:51;2.78;;;1.20;;
43327;SDS011;28923;45.412;10.852;2024-02-23T13:21:16;2.30;;;1.17;;
43327;SDS011;28923;45.412;10.852;2024-02-23T13:23:41;3.30;;;1.27;;
43327;SDS011;28923;45.412;10.852;2024-02-23T13:26:08;2.17;;;1.10;;
43327;SDS011;28923;45.412;10.852;2024-02-23T13:28:38;1.77;;;0.90;;
43327;SDS011;28923;45.412;10.852;2024-02-23T13:31:03;2.00;;;0.77;;
43327;SDS011;28923;45.412;10.852;2024-02-23T13:33:29;4.30;;;1.00;;
43327;SDS011;28923;45.412;10.852;2024-02-23T13:35:54;1.00;;;0.88;;
43327;SDS011;28923;45.412;10.852;2024-02-23T13:38:20;1.38;;;0.90;;
43327;SDS011;28923;45.412;10.852;2024-02-23T13:40:46;0.98;;;0.80;;
43327;SDS011;28923;45.412;10.852;2024-02-23T13:43:11;0.98;;;0.80;;
43327;SDS011;28923;45.412;10.852;2024-02-23T13:45:50;1.85;;;1.08;;
43327;SDS011;28923;45.412;10.852;2024-02-23T13:48:18;1.10;;;1.00;;
43327;SDS011;28923;45.412;10.852;2024-02-23T13:50:47;2.58;;;1.00;;
43327;SDS011;28923;45.412;10.852;2024-02-23T13:53:13;1.15;;;0.90;;
43327;SDS011;28923;45.412;10.852;2024-02-23T13:55:39;1.13;;;0.80;;
43327;SDS011;28923;45.412;10.852;2024-02-23T13:58:04;0.90;;;0.73;;
43327;SDS011;28923;45.412;10.852;2024-02-23T14:00:30;2.65;;;0.70;;
43327;SDS011;28923;45.412;10.852;2024-02-23T14:02:55;1.13;;;0.80;;
43327;SDS011;28923;45.412;10.852;2024-02-23T14:05:21;3.47;;;1.05;;
43327;SDS011;28923;45.412;10.852;2024-02-23T14:07:47;1.13;;;0.77;;
43327;SDS011;28923;45.412;10.852;2024-02-23T14:10:12;0.95;;;0.90;;
43327;SDS011;28923;45.412;10.852;2024-02-23T14:12:39;0.90;;;0.80;;
43327;SDS011;28923;45.412;10.852;2024-02-23T14:15:04;1.05;;;0.95;;
43327;SDS011;28923;45.412;10.852;2024-02-23T14:17:30;2.17;;;1.02;;
43327;SDS011;28923;45.412;10.852;2024-02-23T14:19:55;1.23;;;0.82;;
43327;SDS011;28923;45.412;10.852;2024-02-23T14:22:21;4.30;;;1.10;;
43327;SDS011;28923;45.412;10.852;2024-02-23T14:24:46;3.95;;;1.02;;